createdAt,value
2023-06-04T00:01:26.928Z,66248.69
2023-06-04T00:06:31.419Z,66256.41
2023-06-04T00:11:37.884Z,66237.69
2023-06-04T00:16:42.137Z,66262.22
2023-06-04T00:21:47.638Z,66138.91
2023-06-04T00:26:53.234Z,66196.34
2023-06-04T00:31:57.433Z,66180.69
2023-06-04T00:37:02.682Z,66151.75
2023-06-04T00:42:08.782Z,66138.91
2023-06-04T00:47:13.683Z,66095.69
2023-06-04T00:52:18.510Z,66079.44
2023-06-04T00:57:24.385Z,66042.91
2023-06-04T01:02:31.270Z,66086.03
2023-06-04T01:07:36.849Z,66087.41
2023-06-04T01:12:43.210Z,66051.47
2023-06-04T01:17:52.795Z,66040.78
2023-06-04T01:23:16.398Z,65989.41
2023-06-04T01:28:22.943Z,66017.41
2023-06-04T01:33:27.635Z,66009.91
2023-06-04T01:38:31.974Z,66014.09
2023-06-04T01:43:37.544Z,66121.22
2023-06-04T01:48:42.086Z,66108.91
2023-06-04T01:53:46.204Z,66142.22
2023-06-04T01:58:51.918Z,66114.09
2023-06-04T02:03:56.240Z,66068.91
2023-06-04T02:09:01.796Z,66102.47
2023-06-04T02:14:07.515Z,66033.31
2023-06-04T02:19:14.026Z,66045.78
2023-06-04T02:24:18.109Z,66071.41
2023-06-04T02:29:23.815Z,66076.31
2023-06-04T02:34:28.180Z,66104.97
2023-06-04T02:39:32.506Z,66051.69
2023-06-04T02:44:37.931Z,66069.47
2023-06-04T02:49:42.140Z,66135.25
2023-06-04T02:54:46.320Z,66141.22
2023-06-04T02:59:53.155Z,66128.34
2023-06-04T03:04:57.210Z,66092.28
2023-06-04T03:10:01.177Z,66098.81
2023-06-04T03:15:08.303Z,66163.53
2023-06-04T03:20:12.751Z,66186.69
2023-06-04T03:25:17.087Z,66160.41
2023-06-04T03:30:23.020Z,66143.63
2023-06-04T03:35:36.791Z,66237.34
2023-06-04T03:40:41.201Z,66178.63
2023-06-04T03:45:48.088Z,66160.41
2023-06-04T03:50:52.479Z,66094.44
2023-06-04T03:55:56.881Z,66239.03
2023-06-04T04:01:02.647Z,66195.25
2023-06-04T04:06:06.924Z,66210.72
2023-06-04T04:11:11.244Z,66162.94
2023-06-04T04:16:17.475Z,66163.53
2023-06-04T04:21:22.116Z,66166.66
2023-06-04T04:26:28.922Z,66194.00
2023-06-04T04:31:37.676Z,66277.31
2023-06-04T04:36:42.622Z,66376.47
2023-06-04T04:41:48.063Z,66320.13
2023-06-04T04:46:53.818Z,66327.03
2023-06-04T04:51:58.195Z,66319.06
2023-06-04T04:57:13.417Z,66462.41
2023-06-04T05:02:22.557Z,66497.31
2023-06-04T05:07:27.566Z,66487.19
2023-06-04T05:12:33.141Z,66575.84
2023-06-04T05:17:41.829Z,66581.78
2023-06-04T05:22:48.626Z,66544.59
2023-06-04T05:27:55.734Z,66485.03
2023-06-04T05:33:02.367Z,66532.31
2023-06-04T05:38:07.701Z,66568.25
2023-06-04T05:43:11.894Z,66610.19
2023-06-04T05:48:18.006Z,66718.38
2023-06-04T05:53:22.465Z,66752.69
2023-06-04T05:58:28.761Z,66670.88
2023-06-04T06:03:34.531Z,66649.91
2023-06-04T06:08:38.708Z,66723.69
2023-06-04T06:13:43.335Z,66681.78
2023-06-04T06:18:51.625Z,66716.06
2023-06-04T06:23:56.278Z,66768.81
2023-06-04T06:29:00.869Z,66806.66
2023-06-04T06:34:08.884Z,66823.75
2023-06-04T06:39:13.288Z,66809.81
2023-06-04T06:44:17.357Z,66818.53
2023-06-04T06:49:22.972Z,66845.91
2023-06-04T06:54:27.172Z,66884.69
2023-06-04T06:59:31.289Z,66903.06
2023-06-04T07:04:37.412Z,66873.84
2023-06-04T07:09:41.598Z,66900.91
2023-06-04T07:14:48.215Z,66864.81
2023-06-04T07:19:55.027Z,66971.44
2023-06-04T07:24:59.055Z,66986.75
2023-06-04T07:30:03.358Z,66946.72
2023-06-04T07:35:10.378Z,67010.19
2023-06-04T07:40:14.583Z,67043.25
2023-06-04T07:45:18.909Z,66972.00
2023-06-04T07:50:24.586Z,66960.06
2023-06-04T07:55:28.529Z,67030.28
2023-06-04T08:00:32.934Z,66995.25
2023-06-04T08:05:38.501Z,67029.22
2023-06-04T08:10:42.763Z,67049.66
2023-06-04T08:15:47.008Z,67073.97
2023-06-04T08:20:52.574Z,67102.44
2023-06-04T08:25:56.783Z,67122.00
2023-06-04T08:31:01.553Z,67164.09
2023-06-04T08:36:07.960Z,67098.81
2023-06-04T08:41:17.426Z,67095.56
2023-06-04T08:46:22.912Z,67126.31
2023-06-04T08:51:28.332Z,67096.63
2023-06-04T08:56:33.962Z,67186.72
2023-06-04T09:01:42.093Z,67123.47
2023-06-04T09:06:50.133Z,67132.78
2023-06-04T09:11:55.516Z,67177.06
2023-06-04T09:17:00.372Z,67204.53
2023-06-04T09:22:06.394Z,67198.69
2023-06-04T09:27:14.885Z,67249.94
2023-06-04T09:32:23.664Z,67330.94
2023-06-04T09:37:29.310Z,67346.59
2023-06-04T09:42:33.133Z,67333.69
2023-06-04T09:47:42.341Z,67334.22
2023-06-04T09:52:47.877Z,67306.59
2023-06-04T09:57:52.603Z,67365.50
2023-06-04T10:02:59.894Z,67370.97
2023-06-04T10:08:08.730Z,67316.94
2023-06-04T10:13:19.461Z,67343.34
2023-06-04T10:18:23.950Z,67348.28
2023-06-04T10:23:30.615Z,67433.63
2023-06-04T10:28:36.142Z,67450.38
2023-06-04T10:33:41.442Z,67400.63
2023-06-04T10:38:49.520Z,67403.34
2023-06-04T10:44:02.440Z,67479.59
2023-06-04T10:49:06.553Z,67401.78
2023-06-04T10:54:12.091Z,67531.09
2023-06-04T10:59:18.594Z,67540.19
2023-06-04T11:04:26.718Z,67553.72
2023-06-04T11:09:34.570Z,67544.09
2023-06-04T11:14:39.095Z,67647.84
2023-06-04T11:19:43.629Z,67918.94
2023-06-04T11:24:49.754Z,68051.31
2023-06-04T11:29:55.145Z,68127.31
2023-06-04T11:35:09.070Z,68071.41
2023-06-04T11:40:21.772Z,67724.88
2023-06-04T11:45:26.912Z,67903.75
2023-06-04T11:50:31.408Z,68062.19
2023-06-04T11:55:39.725Z,68237.66
2023-06-04T12:00:44.398Z,68088.81
2023-06-04T12:05:48.628Z,67860.41
2023-06-04T12:10:54.035Z,68026.41
2023-06-04T12:15:58.247Z,67924.94
2023-06-04T12:21:02.352Z,67948.72
2023-06-04T12:26:08.480Z,67887.47
2023-06-04T12:31:19.246Z,68169.69
2023-06-04T12:36:23.562Z,68144.75
2023-06-04T12:41:29.281Z,68186.47
2023-06-04T12:46:34.676Z,68200.66
2023-06-04T12:51:39.691Z,68212.06
2023-06-04T12:56:46.094Z,68314.69
2023-06-04T13:01:50.484Z,68388.19
2023-06-04T13:07:00.102Z,68499.16
2023-06-04T13:12:07.268Z,68498.03
2023-06-04T13:17:22.158Z,68383.75
2023-06-04T13:22:27.476Z,68610.13
2023-06-04T13:27:33.047Z,68468.09
2023-06-04T13:32:37.220Z,68269.06
2023-06-04T13:37:41.180Z,68083.34
2023-06-04T13:42:48.195Z,67915.06
2023-06-04T13:47:54.425Z,67833.22
2023-06-04T13:52:59.430Z,67814.22
2023-06-04T13:58:05.014Z,67801.22
2023-06-04T14:03:09.395Z,67833.31
2023-06-04T14:08:16.427Z,68216.91
2023-06-04T14:13:21.945Z,68318.50
2023-06-04T14:18:26.068Z,68327.78
2023-06-04T14:23:30.351Z,68333.22
2023-06-04T14:28:36.040Z,68170.25
2023-06-04T14:33:40.783Z,68146.78
2023-06-04T14:38:46.083Z,68222.91
2023-06-04T14:43:51.557Z,68291.97
2023-06-04T14:48:55.845Z,68297.38
2023-06-04T14:53:59.883Z,68213.72
2023-06-04T14:59:10.127Z,68177.81
2023-06-04T15:04:14.961Z,68207.72
2023-06-04T15:09:19.290Z,68243.53
2023-06-04T15:14:24.916Z,68228.25
2023-06-04T15:19:29.194Z,68281.09
2023-06-04T15:24:36.539Z,68271.34
2023-06-04T15:29:42.086Z,68323.34
2023-06-04T15:34:46.641Z,68267.47
2023-06-04T15:39:51.423Z,68302.88
2023-06-04T15:44:56.768Z,68164.22
2023-06-04T15:50:01.082Z,67810.97
2023-06-04T15:55:06.075Z,67731.38
2023-06-04T16:00:13.638Z,67621.31
2023-06-04T16:05:18.665Z,67577.47
2023-06-04T16:10:22.998Z,67586.25
2023-06-04T16:15:28.507Z,67544.50
2023-06-04T16:20:32.636Z,67521.25
2023-06-04T16:25:37.563Z,67520.09
2023-06-04T16:30:43.045Z,67438.44
2023-06-04T16:35:47.204Z,67475.25
2023-06-04T16:40:51.284Z,67449.25
2023-06-04T16:45:56.980Z,67446.63
2023-06-04T16:51:00.915Z,67497.91
2023-06-04T16:56:05.923Z,67468.84
2023-06-04T17:01:11.856Z,67491.97
2023-06-04T17:06:16.037Z,67495.75
2023-06-04T17:11:20.091Z,67521.22
2023-06-04T17:16:27.511Z,67509.28
2023-06-04T17:21:32.924Z,67456.88
2023-06-04T17:26:36.998Z,67417.94
2023-06-04T17:31:42.808Z,67472.03
2023-06-04T17:36:47.024Z,67475.88
2023-06-04T17:41:51.147Z,67454.25
2023-06-04T17:46:56.769Z,67463.44
2023-06-04T17:52:00.963Z,67446.06
2023-06-04T17:57:05.924Z,67425.53
2023-06-04T18:02:11.462Z,67421.69
2023-06-04T18:07:15.656Z,67370.38
2023-06-04T18:12:19.726Z,67349.81
2023-06-04T18:17:25.589Z,67296.88
2023-06-04T18:22:30.339Z,67301.69
2023-06-04T18:27:34.677Z,67307.59
2023-06-04T18:32:42.048Z,67318.56
2023-06-04T18:37:46.185Z,67291.53
2023-06-04T18:42:50.322Z,67308.69
2023-06-04T18:47:55.801Z,67284.38
2023-06-04T18:53:00.891Z,67244.97
2023-06-04T18:58:05.076Z,67233.06
2023-06-04T19:03:10.897Z,67004.81
2023-06-04T19:08:15.025Z,66879.81
2023-06-04T19:13:19.248Z,66772.19
2023-06-04T19:18:24.627Z,66771.59
2023-06-04T19:23:28.831Z,66745.75
2023-06-04T19:28:32.952Z,66739.91
2023-06-04T19:33:39.269Z,66714.53
2023-06-04T19:38:45.741Z,66861.53
2023-06-04T19:43:49.989Z,66691.31
2023-06-04T19:48:55.940Z,66627.94
2023-06-04T19:54:00.524Z,66637.53
2023-06-04T19:59:04.927Z,66653.22
2023-06-04T20:04:10.719Z,66660.72
2023-06-04T20:09:15.813Z,66666.03
2023-06-04T20:14:22.150Z,66618.25
2023-06-04T20:19:29.212Z,66654.28
2023-06-04T20:24:33.444Z,66757.06
2023-06-04T20:29:37.600Z,66596.75
2023-06-04T20:34:43.202Z,66629.53
2023-06-04T20:39:49.994Z,66566.28
2023-06-04T20:44:54.185Z,66563.88
2023-06-04T20:49:59.828Z,66686.09
2023-06-04T20:55:04.017Z,66647.81
2023-06-04T21:00:10.447Z,66677.47
2023-06-04T21:05:16.091Z,66625.84
2023-06-04T21:10:24.244Z,66599.88
2023-06-04T21:15:37.880Z,66653.22
2023-06-04T21:20:46.295Z,66541.84
2023-06-04T21:25:50.746Z,66430.72
2023-06-04T21:30:57.382Z,66446.03
2023-06-04T21:36:03.170Z,66428.50
2023-06-04T21:41:07.676Z,66441.53
2023-06-04T21:46:12.098Z,66387.28
2023-06-04T21:51:17.769Z,66413.09
2023-06-04T21:56:22.042Z,66392.50
2023-06-04T22:01:26.195Z,66382.94
2023-06-04T22:06:31.705Z,66390.53
2023-06-04T22:11:36.143Z,66397.88
2023-06-04T22:16:40.260Z,66406.38
2023-06-04T22:21:46.223Z,66360.47
2023-06-04T22:26:50.574Z,66392.56
2023-06-04T22:31:55.039Z,66408.75
2023-06-04T22:37:01.091Z,66485.50
2023-06-04T22:42:05.523Z,66478.41
2023-06-04T22:47:10.492Z,66428.56
2023-06-04T22:52:17.156Z,66464.00
2023-06-04T22:57:21.282Z,66443.53
2023-06-04T23:02:25.480Z,66314.84
2023-06-04T23:07:30.983Z,66310.91
2023-06-04T23:12:35.142Z,66268.66
2023-06-04T23:17:41.214Z,66239.03
2023-06-04T23:22:47.320Z,66277.75
2023-06-04T23:27:54.704Z,66314.22
2023-06-04T23:32:59.350Z,66270.69
2023-06-04T23:38:05.052Z,66267.66
2023-06-04T23:43:09.096Z,66368.41
2023-06-04T23:48:13.224Z,66301.06
2023-06-04T23:53:18.827Z,66345.28
2023-06-04T23:58:23.177Z,66322.38
